Time;durP1;ratioP1;P1;durP2;ratioP2;P2;SDS_P1;SDS_P2;PMS_P1;PMS_P2;Temp;Humidity;BMP_temperature;BMP_pressure;BME280_temperature;BME280_humidity;BME280_pressure;Samples;Min_cycle;Max_cycle;Signal;HPM_P1;HPM_P2
2022/12/02 00:00:48;;;;;;;112.15;32.58;;;;;;;;;;5035329;28;20036;-70
2022/12/02 00:03:17;;;;;;;114.70;33.17;;;;;;;;;;5035026;28;20496;-70
2022/12/02 00:05:43;;;;;;;110.72;34.00;;;;;;;;;;5051420;28;20051;-70
2022/12/02 00:08:15;;;;;;;111.20;32.58;;;;;;;;;;5051050;28;20061;-71
2022/12/02 00:10:43;;;;;;;108.68;33.78;;;;;;;;;;5049485;28;20045;-70
2022/12/02 00:13:36;;;;;;;103.80;30.23;;;;;;;;;;5051096;28;20056;-70
2022/12/02 00:16:03;;;;;;;114.10;32.85;;;;;;;;;;5052590;28;20036;-70
2022/12/02 00:18:29;;;;;;;116.22;32.85;;;;;;;;;;5051231;28;20045;-70
2022/12/02 00:20:55;;;;;;;104.47;31.17;;;;;;;;;;5051144;28;20041;-70
2022/12/02 00:23:21;;;;;;;113.85;32.33;;;;;;;;;;5051356;28;20040;-70
2022/12/02 00:25:49;;;;;;;118.00;34.70;;;;;;;;;;5051121;28;20039;-70
2022/12/02 00:28:15;;;;;;;108.65;32.17;;;;;;;;;;5051355;28;20029;-70
2022/12/02 00:30:41;;;;;;;107.45;31.23;;;;;;;;;;5051066;28;20039;-71
2022/12/02 00:33:07;;;;;;;109.50;31.58;;;;;;;;;;5051137;28;20037;-70
2022/12/02 00:35:33;;;;;;;96.95;30.42;;;;;;;;;;5051082;28;20146;-71
2022/12/02 00:38:00;;;;;;;101.35;31.00;;;;;;;;;;5033559;28;20033;-70
2022/12/02 00:40:26;;;;;;;99.25;32.03;;;;;;;;;;5051180;28;20037;-70
2022/12/02 00:42:52;;;;;;;96.10;30.60;;;;;;;;;;5034313;28;20045;-70
2022/12/02 00:48:02;;;;;;;104.65;32.25;;;;;;;;;;5050772;28;20057;-70
2022/12/02 00:50:29;;;;;;;98.43;30.38;;;;;;;;;;5048196;28;20095;-71
2022/12/02 00:52:55;;;;;;;105.43;31.25;;;;;;;;;;5050648;28;20033;-71
2022/12/02 00:55:21;;;;;;;101.85;31.05;;;;;;;;;;5050630;28;20047;-71
2022/12/02 00:57:47;;;;;;;97.07;29.77;;;;;;;;;;5083407;28;20048;-70
2022/12/02 01:00:13;;;;;;;103.10;31.35;;;;;;;;;;5050752;28;20044;-70
2022/12/02 01:02:39;;;;;;;101.13;29.02;;;;;;;;;;5031872;28;20159;-70
2022/12/02 01:05:06;;;;;;;98.63;28.25;;;;;;;;;;5033977;28;20469;-70
2022/12/02 01:07:32;;;;;;;105.03;30.50;;;;;;;;;;5050612;28;20098;-70
2022/12/02 01:09:58;;;;;;;93.47;29.83;;;;;;;;;;5051003;28;20404;-70
2022/12/02 01:12:24;;;;;;;106.80;30.38;;;;;;;;;;5050572;28;20115;-70
2022/12/02 01:14:50;;;;;;;98.20;29.35;;;;;;;;;;5050609;28;20120;-70
2022/12/02 01:17:16;;;;;;;103.97;30.85;;;;;;;;;;5033813;28;20037;-70
2022/12/02 01:19:42;;;;;;;94.72;29.85;;;;;;;;;;5050264;28;20116;-71
2022/12/02 01:22:08;;;;;;;103.10;31.08;;;;;;;;;;5050780;28;20448;-70
2022/12/02 01:24:34;;;;;;;93.70;31.23;;;;;;;;;;5033663;28;20041;-70
2022/12/02 01:27:00;;;;;;;105.28;31.40;;;;;;;;;;5050602;28;20045;-70
2022/12/02 01:29:26;;;;;;;98.72;29.13;;;;;;;;;;5051918;28;20032;-70
2022/12/02 01:31:54;;;;;;;90.93;29.35;;;;;;;;;;5050558;28;20345;-70
2022/12/02 01:34:20;;;;;;;98.63;29.45;;;;;;;;;;5050499;28;20048;-70
2022/12/02 01:36:46;;;;;;;97.55;29.90;;;;;;;;;;5033813;28;20174;-70
2022/12/02 01:39:12;;;;;;;95.43;30.15;;;;;;;;;;5050613;28;20039;-70
2022/12/02 01:41:38;;;;;;;91.70;30.10;;;;;;;;;;5050218;28;20124;-70
2022/12/02 01:44:05;;;;;;;91.22;29.73;;;;;;;;;;5050477;28;20048;-70
2022/12/02 01:46:31;;;;;;;97.78;29.38;;;;;;;;;;5050108;28;20061;-70
2022/12/02 01:48:57;;;;;;;102.90;30.92;;;;;;;;;;5050280;28;20107;-70
2022/12/02 01:51:23;;;;;;;102.88;29.75;;;;;;;;;;5054262;28;20055;-70
2022/12/02 01:53:49;;;;;;;95.30;31.35;;;;;;;;;;5053821;28;20167;-70
2022/12/02 01:56:15;;;;;;;102.38;30.63;;;;;;;;;;5037589;28;20496;-70
2022/12/02 01:58:41;;;;;;;99.28;30.42;;;;;;;;;;5054595;28;20499;-71
2022/12/02 02:01:28;;;;;;;100.28;30.52;;;;;;;;;;5037846;28;20037;-70
2022/12/02 02:03:54;;;;;;;97.85;31.90;;;;;;;;;;5054194;28;20051;-70
2022/12/02 02:06:21;;;;;;;97.75;31.55;;;;;;;;;;5054995;28;20084;-70
2022/12/02 02:08:47;;;;;;;97.30;30.70;;;;;;;;;;5037216;28;20564;-70
2022/12/02 02:11:13;;;;;;;104.13;30.77;;;;;;;;;;5053779;28;20047;-71
2022/12/02 02:13:39;;;;;;;111.18;30.48;;;;;;;;;;5037029;28;20041;-70
2022/12/02 02:16:05;;;;;;;99.63;31.45;;;;;;;;;;5037179;28;20041;-71
2022/12/02 02:18:31;;;;;;;86.22;28.98;;;;;;;;;;5054026;28;20044;-70
2022/12/02 02:20:58;;;;;;;105.00;33.03;;;;;;;;;;5053802;28;20128;-70
2022/12/02 02:23:25;;;;;;;96.10;31.10;;;;;;;;;;5080541;28;20040;-70
2022/12/02 02:25:53;;;;;;;90.25;29.85;;;;;;;;;;5053518;28;20048;-70
2022/12/02 02:28:22;;;;;;;98.55;29.95;;;;;;;;;;5053578;28;20075;-70
2022/12/02 02:30:48;;;;;;;96.15;29.13;;;;;;;;;;5053371;28;20051;-70
2022/12/02 02:33:15;;;;;;;101.60;31.08;;;;;;;;;;5053240;28;20089;-70
2022/12/02 02:35:41;;;;;;;98.00;30.77;;;;;;;;;;5053248;28;20566;-70
2022/12/02 02:38:08;;;;;;;87.55;28.70;;;;;;;;;;5054363;28;20033;-70
2022/12/02 02:40:35;;;;;;;113.18;30.70;;;;;;;;;;5085846;28;20033;-70
2022/12/02 02:43:02;;;;;;;96.28;29.58;;;;;;;;;;5083018;28;20037;-70
2022/12/02 02:45:32;;;;;;;96.47;30.40;;;;;;;;;;5053349;28;20131;-70
2022/12/02 02:47:59;;;;;;;97.20;29.75;;;;;;;;;;5052938;28;20060;-70
2022/12/02 02:50:25;;;;;;;98.25;29.92;;;;;;;;;;5050474;28;20048;-70
2022/12/02 02:52:52;;;;;;;95.05;29.75;;;;;;;;;;5053030;28;20119;-71
2022/12/02 02:55:20;;;;;;;104.00;30.08;;;;;;;;;;5053162;28;20189;-70
2022/12/02 02:57:46;;;;;;;96.80;29.88;;;;;;;;;;5052612;28;20048;-70
2022/12/02 03:00:13;;;;;;;90.88;28.70;;;;;;;;;;5052863;28;20045;-70
2022/12/02 03:02:40;;;;;;;87.40;28.08;;;;;;;;;;5052126;28;20037;-70
2022/12/02 03:05:06;;;;;;;98.25;30.13;;;;;;;;;;5035857;28;20047;-70
2022/12/02 03:07:33;;;;;;;87.60;27.70;;;;;;;;;;5052632;28;20052;-70
2022/12/02 03:09:59;;;;;;;87.22;26.65;;;;;;;;;;5033398;28;20041;-70
2022/12/02 03:12:26;;;;;;;86.47;28.35;;;;;;;;;;5052527;28;20040;-70
2022/12/02 03:14:52;;;;;;;89.72;27.35;;;;;;;;;;5052661;28;20036;-70
2022/12/02 03:17:18;;;;;;;79.70;27.40;;;;;;;;;;5052396;28;20468;-70
2022/12/02 03:19:45;;;;;;;87.57;27.75;;;;;;;;;;5052530;28;20041;-71
2022/12/02 03:22:11;;;;;;;92.38;27.83;;;;;;;;;;5052511;28;20037;-70
2022/12/02 03:24:37;;;;;;;90.53;26.67;;;;;;;;;;5052447;28;20086;-70
2022/12/02 03:27:04;;;;;;;84.57;26.52;;;;;;;;;;5053279;28;20032;-70
2022/12/02 03:29:30;;;;;;;89.43;26.70;;;;;;;;;;5035731;28;20048;-70
2022/12/02 03:31:58;;;;;;;90.20;27.35;;;;;;;;;;5049761;28;20063;-70
2022/12/02 03:34:24;;;;;;;80.72;26.27;;;;;;;;;;5052120;28;20049;-70
2022/12/02 03:36:50;;;;;;;93.32;27.90;;;;;;;;;;5052161;28;20202;-70
2022/12/02 03:39:17;;;;;;;91.47;26.85;;;;;;;;;;5052160;28;20477;-70
2022/12/02 03:41:44;;;;;;;84.80;27.23;;;;;;;;;;5052161;28;20040;-70
2022/12/02 03:44:10;;;;;;;80.32;24.77;;;;;;;;;;5052179;28;20047;-71
2022/12/02 03:46:36;;;;;;;90.47;27.70;;;;;;;;;;5051991;28;20048;-71
2022/12/02 03:49:03;;;;;;;82.35;27.60;;;;;;;;;;5052126;28;20047;-70
2022/12/02 03:51:29;;;;;;;82.60;26.45;;;;;;;;;;5051391;28;20044;-70
2022/12/02 03:53:55;;;;;;;84.55;26.10;;;;;;;;;;5051811;28;20583;-70
2022/12/02 03:56:21;;;;;;;84.55;26.63;;;;;;;;;;5035507;28;20461;-70
2022/12/02 03:58:49;;;;;;;90.15;27.55;;;;;;;;;;5052220;28;20098;-71
2022/12/02 04:01:15;;;;;;;93.20;27.00;;;;;;;;;;5051871;28;20041;-70
2022/12/02 04:03:42;;;;;;;89.80;26.52;;;;;;;;;;5066642;28;20482;-71
2022/12/02 04:06:08;;;;;;;95.30;26.80;;;;;;;;;;5034804;28;20052;-70
2022/12/02 04:08:34;;;;;;;100.50;29.52;;;;;;;;;;5051576;28;20048;-71
2022/12/02 04:11:01;;;;;;;100.95;31.13;;;;;;;;;;5051283;28;20032;-70
2022/12/02 04:13:27;;;;;;;98.65;28.23;;;;;;;;;;5034386;28;20145;-71
2022/12/02 04:15:53;;;;;;;100.30;29.50;;;;;;;;;;5051539;28;20068;-70
2022/12/02 04:18:19;;;;;;;102.72;29.58;;;;;;;;;;5051205;28;20029;-71
2022/12/02 04:20:45;;;;;;;95.43;26.90;;;;;;;;;;5051303;28;20040;-70
2022/12/02 04:23:11;;;;;;;96.82;28.55;;;;;;;;;;5051412;28;20577;-71
2022/12/02 04:25:37;;;;;;;101.13;30.30;;;;;;;;;;5051749;28;20058;-70
2022/12/02 04:28:03;;;;;;;106.80;29.65;;;;;;;;;;5051516;28;20040;-71
2022/12/02 04:30:29;;;;;;;99.10;29.23;;;;;;;;;;5034696;28;20036;-70
2022/12/02 04:32:55;;;;;;;95.53;26.90;;;;;;;;;;5051309;28;20032;-70
2022/12/02 04:35:22;;;;;;;92.57;28.67;;;;;;;;;;5051003;28;20053;-70
2022/12/02 04:37:50;;;;;;;102.43;29.95;;;;;;;;;;5034652;28;20116;-71
2022/12/02 04:40:17;;;;;;;105.18;28.30;;;;;;;;;;5050927;28;20036;-71
2022/12/02 04:42:43;;;;;;;97.85;28.25;;;;;;;;;;5034422;28;20037;-70
2022/12/02 04:45:09;;;;;;;108.18;29.23;;;;;;;;;;5083276;28;20045;-70
2022/12/02 04:47:35;;;;;;;99.78;27.60;;;;;;;;;;5034050;28;20080;-71
2022/12/02 04:50:02;;;;;;;107.10;29.77;;;;;;;;;;5050921;28;20473;-70
2022/12/02 04:52:28;;;;;;;92.65;28.15;;;;;;;;;;5050768;28;20489;-71
2022/12/02 04:54:54;;;;;;;102.70;25.80;;;;;;;;;;5051194;28;20063;-70
2022/12/02 04:57:20;;;;;;;102.18;28.05;;;;;;;;;;5050553;28;20043;-70
2022/12/02 04:59:46;;;;;;;101.05;27.85;;;;;;;;;;5083456;28;20037;-71
2022/12/02 05:02:12;;;;;;;94.10;28.58;;;;;;;;;;5051733;28;20037;-70
2022/12/02 05:04:38;;;;;;;109.85;29.90;;;;;;;;;;5050507;28;20503;-70
2022/12/02 05:07:04;;;;;;;97.15;26.08;;;;;;;;;;5050251;28;20445;-70
2022/12/02 05:09:30;;;;;;;92.57;27.05;;;;;;;;;;5048037;28;20110;-70
2022/12/02 05:11:56;;;;;;;110.38;30.65;;;;;;;;;;5050887;28;20128;-70
2022/12/02 05:14:22;;;;;;;88.70;28.42;;;;;;;;;;5050837;28;20037;-70
2022/12/02 05:16:48;;;;;;;89.70;25.73;;;;;;;;;;5050504;28;20120;-70
2022/12/02 05:19:14;;;;;;;105.20;26.40;;;;;;;;;;5039506;28;20501;-70
2022/12/02 05:21:40;;;;;;;104.60;27.48;;;;;;;;;;5040397;28;20056;-70
2022/12/02 05:24:07;;;;;;;95.72;27.02;;;;;;;;;;5050644;28;20033;-70
2022/12/02 05:26:33;;;;;;;92.40;28.60;;;;;;;;;;5038294;28;20041;-70
2022/12/02 05:28:59;;;;;;;103.13;28.00;;;;;;;;;;5054584;28;20128;-69
2022/12/02 05:31:25;;;;;;;99.15;28.00;;;;;;;;;;5054526;28;20036;-70
2022/12/02 05:33:51;;;;;;;80.38;25.30;;;;;;;;;;5054317;28;20116;-70
2022/12/02 05:36:17;;;;;;;102.40;28.90;;;;;;;;;;5055787;28;20048;-70
2022/12/02 05:38:43;;;;;;;104.63;29.73;;;;;;;;;;5040188;28;20148;-70
2022/12/02 05:41:09;;;;;;;101.15;27.73;;;;;;;;;;5056829;28;20049;-70
2022/12/02 05:43:42;;;;;;;109.45;29.63;;;;;;;;;;5038621;28;20051;-70
2022/12/02 05:46:13;;;;;;;94.40;26.38;;;;;;;;;;5057750;28;20045;-70
2022/12/02 05:48:39;;;;;;;100.13;27.60;;;;;;;;;;5057065;28;20048;-69
2022/12/02 05:51:09;;;;;;;97.45;28.60;;;;;;;;;;5056354;28;20025;-70
2022/12/02 05:53:35;;;;;;;94.88;28.63;;;;;;;;;;5054780;28;20051;-70
2022/12/02 05:56:01;;;;;;;96.68;28.98;;;;;;;;;;5054508;28;20049;-69
2022/12/02 05:58:27;;;;;;;96.47;28.73;;;;;;;;;;5083545;28;20048;-71
2022/12/02 06:00:58;;;;;;;98.25;28.40;;;;;;;;;;5037822;28;20073;-70
2022/12/02 06:03:24;;;;;;;92.68;27.92;;;;;;;;;;5037588;28;20094;-70
2022/12/02 06:05:52;;;;;;;104.05;29.15;;;;;;;;;;5053801;28;20489;-70
2022/12/02 06:08:18;;;;;;;103.25;29.83;;;;;;;;;;5053712;28;20091;-70
2022/12/02 06:10:50;;;;;;;108.55;28.67;;;;;;;;;;5055247;28;20033;-70
2022/12/02 06:13:20;;;;;;;122.25;30.58;;;;;;;;;;5053766;28;20128;-70
2022/12/02 06:15:47;;;;;;;114.30;29.25;;;;;;;;;;5054063;28;20068;-70
2022/12/02 06:18:17;;;;;;;106.43;29.60;;;;;;;;;;5053728;28;20033;-70
2022/12/02 06:20:44;;;;;;;119.95;30.60;;;;;;;;;;5053808;28;20124;-70
2022/12/02 06:23:15;;;;;;;108.53;26.65;;;;;;;;;;5053539;28;20507;-70
2022/12/02 06:25:41;;;;;;;109.13;28.58;;;;;;;;;;5054869;28;20080;-70
2022/12/02 06:28:19;;;;;;;124.32;29.77;;;;;;;;;;5053295;28;20543;-70
2022/12/02 06:30:46;;;;;;;112.65;29.10;;;;;;;;;;5053526;28;20539;-70
2022/12/02 06:33:23;;;;;;;114.15;29.98;;;;;;;;;;5037000;28;20045;-66
2022/12/02 06:35:49;;;;;;;112.93;28.30;;;;;;;;;;5053377;28;20041;-66
2022/12/02 06:38:24;;;;;;;117.03;29.77;;;;;;;;;;5036413;28;20048;-66
2022/12/02 06:40:50;;;;;;;125.57;29.33;;;;;;;;;;5052461;28;20090;-65
2022/12/02 06:43:23;;;;;;;107.55;28.25;;;;;;;;;;5053030;28;20052;-66
2022/12/02 06:45:49;;;;;;;;;;;;;;;;;;5053555;28;20048;-66
2022/12/02 06:48:30;;;;;;;117.00;30.75;;;;;;;;;;5053192;28;19916;-66
2022/12/02 06:50:57;;;;;;;110.28;28.73;;;;;;;;;;5054338;28;20037;-66
2022/12/02 06:53:25;;;;;;;125.25;29.60;;;;;;;;;;5036373;28;20105;-66
2022/12/02 06:55:58;;;;;;;109.60;29.67;;;;;;;;;;5051181;28;20041;-66
2022/12/02 06:58:24;;;;;;;122.50;27.27;;;;;;;;;;5053044;28;20128;-66
2022/12/02 07:00:50;;;;;;;112.13;30.70;;;;;;;;;;5054014;28;20072;-65
2022/12/02 07:03:29;;;;;;;116.38;29.38;;;;;;;;;;5033856;28;20048;-66
2022/12/02 07:06:23;;;;;;;110.38;27.70;;;;;;;;;;5049418;28;20049;-70
2022/12/02 07:08:49;;;;;;;140.52;30.45;;;;;;;;;;5035947;28;20442;-70
2022/12/02 07:14:19;;;;;;;117.22;29.05;;;;;;;;;;5053626;28;20049;-70
2022/12/02 07:16:45;;;;;;;117.03;30.67;;;;;;;;;;5054714;28;20045;-69
2022/12/02 07:19:22;;;;;;;114.40;30.13;;;;;;;;;;5053470;28;20041;-70
2022/12/02 07:21:49;;;;;;;122.15;28.63;;;;;;;;;;5054720;28;20076;-70
2022/12/02 07:24:15;;;;;;;118.38;27.80;;;;;;;;;;5053335;28;20128;-70
2022/12/02 07:26:42;;;;;;;112.38;29.52;;;;;;;;;;5036878;28;20444;-69
2022/12/02 07:29:10;;;;;;;109.45;28.30;;;;;;;;;;5052887;28;20361;-69
2022/12/02 07:31:37;;;;;;;110.70;28.27;;;;;;;;;;5050069;28;20539;-70
2022/12/02 07:34:03;;;;;;;115.47;30.00;;;;;;;;;;5051955;28;20095;-70
2022/12/02 07:36:29;;;;;;;114.03;29.27;;;;;;;;;;5052771;28;20443;-69
2022/12/02 07:38:55;;;;;;;110.28;28.27;;;;;;;;;;5052956;28;20036;-70
2022/12/02 07:41:21;;;;;;;110.72;29.02;;;;;;;;;;5052483;28;20040;-69
2022/12/02 07:43:48;;;;;;;115.00;29.83;;;;;;;;;;5053204;28;20048;-69
2022/12/02 07:46:14;;;;;;;109.65;29.02;;;;;;;;;;5053189;28;20052;-69
2022/12/02 07:48:40;;;;;;;110.72;29.60;;;;;;;;;;5052863;28;20080;-69
2022/12/02 07:51:06;;;;;;;108.15;28.38;;;;;;;;;;5054304;28;20090;-70
2022/12/02 07:53:32;;;;;;;111.28;30.30;;;;;;;;;;5053039;28;20083;-69
2022/12/02 07:55:58;;;;;;;110.97;29.23;;;;;;;;;;5036522;28;20432;-69
2022/12/02 07:58:24;;;;;;;107.25;28.83;;;;;;;;;;5052837;28;20040;-69
2022/12/02 08:00:50;;;;;;;107.80;27.25;;;;;;;;;;5036340;28;20084;-68
2022/12/02 08:03:16;;;;;;;107.50;28.73;;;;;;;;;;5052786;28;20117;-69
2022/12/02 08:05:43;;;;;;;113.65;27.90;;;;;;;;;;5052510;28;20456;-69
2022/12/02 08:08:09;;;;;;;95.03;29.13;;;;;;;;;;5052501;28;20072;-69
2022/12/02 08:10:35;;;;;;;96.28;26.73;;;;;;;;;;5052850;28;20084;-69
2022/12/02 08:13:01;;;;;;;94.43;27.55;;;;;;;;;;5052725;28;20350;-69
2022/12/02 08:15:27;;;;;;;112.53;30.25;;;;;;;;;;5052912;28;20137;-69
2022/12/02 08:17:53;;;;;;;99.05;27.13;;;;;;;;;;5052450;28;20044;-69
2022/12/02 08:20:20;;;;;;;97.30;27.38;;;;;;;;;;5053654;28;20474;-66
2022/12/02 08:22:46;;;;;;;94.35;25.30;;;;;;;;;;5035814;28;20041;-66
2022/12/02 08:25:12;;;;;;;98.13;25.23;;;;;;;;;;5052568;28;20109;-66
2022/12/02 08:27:39;;;;;;;98.72;25.63;;;;;;;;;;5053690;28;20040;-65
2022/12/02 08:30:08;;;;;;;79.00;23.63;;;;;;;;;;5052683;28;20041;-66
2022/12/02 08:32:35;;;;;;;96.78;24.50;;;;;;;;;;5052142;28;20047;-65
2022/12/02 08:35:01;;;;;;;88.38;23.67;;;;;;;;;;5052195;28;20092;-65
2022/12/02 08:37:27;;;;;;;75.65;23.30;;;;;;;;;;5052171;28;20041;-65
2022/12/02 08:39:53;;;;;;;68.15;20.55;;;;;;;;;;5052082;28;20503;-65
2022/12/02 08:42:19;;;;;;;79.75;22.10;;;;;;;;;;5035875;28;20134;-66
2022/12/02 08:44:45;;;;;;;70.25;20.80;;;;;;;;;;5052628;28;20041;-66
2022/12/02 08:47:11;;;;;;;76.65;20.05;;;;;;;;;;5052135;28;20045;-66
2022/12/02 08:49:37;;;;;;;81.93;21.58;;;;;;;;;;5053501;28;20041;-66
2022/12/02 08:52:03;;;;;;;86.22;23.27;;;;;;;;;;5035485;28;20167;-65
2022/12/02 08:54:29;;;;;;;93.18;24.35;;;;;;;;;;5052189;28;20105;-66
2022/12/02 08:56:55;;;;;;;79.53;22.02;;;;;;;;;;5051826;28;20060;-65
2022/12/02 08:59:22;;;;;;;69.80;21.08;;;;;;;;;;5050956;28;20504;-65
2022/12/02 09:01:48;;;;;;;87.60;22.65;;;;;;;;;;5052256;28;20124;-66
2022/12/02 09:04:14;;;;;;;80.35;23.42;;;;;;;;;;5051946;28;20052;-66
2022/12/02 09:06:41;;;;;;;76.32;22.98;;;;;;;;;;5051737;28;20087;-66
2022/12/02 09:09:07;;;;;;;84.25;22.63;;;;;;;;;;5052917;28;20111;-66
2022/12/02 09:11:33;;;;;;;95.07;27.35;;;;;;;;;;5051822;28;20090;-66
2022/12/02 09:13:59;;;;;;;100.65;26.20;;;;;;;;;;5053065;28;20076;-65
2022/12/02 09:16:25;;;;;;;108.18;27.20;;;;;;;;;;5051760;28;20037;-65
2022/12/02 09:18:54;;;;;;;103.47;27.00;;;;;;;;;;5035239;28;20493;-66
2022/12/02 09:21:20;;;;;;;97.82;26.95;;;;;;;;;;5035347;28;20477;-65
2022/12/02 09:23:46;;;;;;;106.82;28.98;;;;;;;;;;5051741;28;20045;-65
2022/12/02 09:26:12;;;;;;;100.43;27.95;;;;;;;;;;5035164;28;20045;-66
2022/12/02 09:28:38;;;;;;;97.15;29.25;;;;;;;;;;5035195;28;20493;-66
2022/12/02 09:31:05;;;;;;;88.25;26.83;;;;;;;;;;5051841;28;20108;-65
2022/12/02 09:33:31;;;;;;;92.85;25.67;;;;;;;;;;5052689;28;20495;-66
2022/12/02 09:35:57;;;;;;;74.60;22.65;;;;;;;;;;5035351;28;20037;-65
2022/12/02 09:38:23;;;;;;;78.57;23.67;;;;;;;;;;5051867;28;20044;-65
2022/12/02 09:40:49;;;;;;;70.85;20.77;;;;;;;;;;5051726;28;20045;-66
2022/12/02 09:43:15;;;;;;;77.20;23.40;;;;;;;;;;5051468;28;20045;-65
2022/12/02 09:45:41;;;;;;;92.85;26.20;;;;;;;;;;5051432;28;20047;-66
2022/12/02 09:48:07;;;;;;;80.28;25.40;;;;;;;;;;5051421;28;20493;-65
2022/12/02 09:50:34;;;;;;;83.35;26.38;;;;;;;;;;5035246;28;20040;-65
2022/12/02 09:53:04;;;;;;;86.20;26.35;;;;;;;;;;5051385;28;20048;-65
2022/12/02 09:55:31;;;;;;;78.93;24.30;;;;;;;;;;5051500;28;20041;-66
2022/12/02 09:58:08;;;;;;;64.00;20.80;;;;;;;;;;5035085;28;20393;-65
2022/12/02 10:00:34;;;;;;;62.60;20.40;;;;;;;;;;5051557;28;20033;-65
2022/12/02 10:03:00;;;;;;;62.95;20.27;;;;;;;;;;5052621;28;20041;-65
2022/12/02 10:05:28;;;;;;;60.15;18.67;;;;;;;;;;5051385;28;20045;-65
2022/12/02 10:07:56;;;;;;;61.08;19.55;;;;;;;;;;5051164;28;20523;-66
2022/12/02 10:10:27;;;;;;;57.08;18.60;;;;;;;;;;5052123;28;20119;-65
2022/12/02 10:12:53;;;;;;;65.65;20.25;;;;;;;;;;5054935;28;20045;-66
2022/12/02 10:15:21;;;;;;;66.63;20.30;;;;;;;;;;5055049;28;20044;-66
2022/12/02 10:17:48;;;;;;;61.47;19.40;;;;;;;;;;5055091;28;20037;-65
2022/12/02 10:20:16;;;;;;;59.60;19.85;;;;;;;;;;5055055;28;20047;-65
2022/12/02 10:23:00;;;;;;;55.88;19.77;;;;;;;;;;5055005;28;20037;-65
2022/12/02 10:25:30;;;;;;;60.85;19.02;;;;;;;;;;5056324;28;20056;-65
2022/12/02 10:27:56;;;;;;;69.80;20.50;;;;;;;;;;5055140;28;20076;-65
2022/12/02 10:30:25;;;;;;;60.97;18.88;;;;;;;;;;5054744;28;20124;-66
2022/12/02 10:32:58;;;;;;;62.03;19.83;;;;;;;;;;5054765;28;20041;-66
2022/12/02 10:35:24;;;;;;;;;;;;;;;;;;5055311;28;20053;-66
2022/12/02 10:37:50;;;;;;;59.85;20.33;;;;;;;;;;5054584;28;20002;-65
2022/12/02 10:40:18;;;;;;;70.25;21.05;;;;;;;;;;5038079;28;20077;-65
2022/12/02 10:42:44;;;;;;;63.25;19.80;;;;;;;;;;5056065;28;20435;-66
2022/12/02 10:45:16;;;;;;;68.93;20.02;;;;;;;;;;5055815;28;20049;-65
2022/12/02 10:47:42;;;;;;;66.23;21.30;;;;;;;;;;5054739;28;20111;-66
2022/12/02 10:50:17;;;;;;;77.38;19.80;;;;;;;;;;5037915;28;20290;-69
2022/12/02 10:52:55;;;;;;;68.68;22.23;;;;;;;;;;5054400;28;20041;-68
2022/12/02 10:55:21;;;;;;;73.18;21.77;;;;;;;;;;5054562;28;20045;-69
2022/12/02 10:57:49;;;;;;;62.45;19.10;;;;;;;;;;5054244;28;20129;-69
2022/12/02 11:00:23;;;;;;;60.03;19.05;;;;;;;;;;5055481;28;20505;-70
2022/12/02 11:02:51;;;;;;;64.65;20.92;;;;;;;;;;5037578;28;20537;-69
2022/12/02 11:05:19;;;;;;;68.43;20.02;;;;;;;;;;5054025;28;20045;-69
2022/12/02 11:07:53;;;;;;;69.07;20.45;;;;;;;;;;5037179;28;20053;-70
2022/12/02 11:10:23;;;;;;;62.22;19.63;;;;;;;;;;5053924;28;20040;-69
2022/12/02 11:12:53;;;;;;;65.63;20.52;;;;;;;;;;5054199;28;20045;-69
2022/12/02 11:15:35;;;;;;;66.18;19.55;;;;;;;;;;5054167;28;20568;-69
2022/12/02 11:18:01;;;;;;;64.85;22.35;;;;;;;;;;5054018;28;20041;-69
2022/12/02 11:20:33;;;;;;;63.75;21.80;;;;;;;;;;5053888;28;20049;-70
2022/12/02 11:22:59;;;;;;;63.50;21.20;;;;;;;;;;5052835;28;20086;-69
2022/12/02 11:25:40;;;;;;;59.85;19.77;;;;;;;;;;5055190;28;20098;-70
2022/12/02 11:28:19;;;;;;;67.07;22.27;;;;;;;;;;5054022;28;20359;-69
2022/12/02 11:30:46;;;;;;;63.53;20.13;;;;;;;;;;5053623;28;20091;-69
2022/12/02 11:33:13;;;;;;;59.05;20.55;;;;;;;;;;5036861;28;20073;-68
2022/12/02 11:36:13;;;;;;;66.57;21.65;;;4.00;99.90;;;;;;5053642;28;20044;-69
2022/12/02 11:38:57;;;;;;;66.00;20.75;;;;;;;;;;5054615;28;20045;-69
2022/12/02 11:41:51;;;;;;;61.88;22.17;;;;;;;;;;5053574;28;20044;-69
2022/12/02 11:44:21;;;;;;;67.15;22.30;;;;;;;;;;5053286;28;20056;-69
2022/12/02 11:46:54;;;;;;;65.70;23.88;;;;;;;;;;5053394;28;20074;-69
2022/12/02 11:49:26;;;;;;;70.18;22.65;;;;;;;;;;5053436;28;20052;-69
2022/12/02 11:51:59;;;;;;;68.20;23.38;;;;;;;;;;5053181;28;20045;-69
2022/12/02 11:54:25;;;;;;;73.72;23.95;;;;;;;;;;5053125;28;20044;-69
2022/12/02 11:56:53;;;;;;;78.38;24.40;;;;;;;;;;5053083;28;20049;-69
2022/12/02 11:59:27;;;;;;;80.38;24.80;;;;;;;;;;5053564;28;20033;-69
2022/12/02 12:02:10;;;;;;;93.40;28.65;;;;;;;;;;5053438;28;20041;-69
2022/12/02 12:04:36;;;;;;;109.15;30.08;;;;;;;;;;5053179;28;20123;-69
2022/12/02 12:07:03;;;;;;;99.63;30.33;;;;;;;;;;5036443;28;20494;-69
2022/12/02 12:09:29;;;;;;;94.00;29.55;;;;;;;;;;5035971;28;20060;-69
2022/12/02 12:12:05;;;;;;;93.28;30.27;;;;;;;;;;5052874;28;20045;-69
2022/12/02 12:14:31;;;;;;;114.68;31.35;;;;;;;;;;5052751;28;20076;-69
2022/12/02 12:17:17;;;;;;;105.97;30.15;;;;;;;;;;5052670;28;20052;-69
2022/12/02 12:19:43;;;;;;;100.28;31.00;;;;;;;;;;5052673;28;20072;-70
2022/12/02 12:22:26;;;;;;;94.78;29.95;;;;;;;;;;5052660;28;20049;-70
2022/12/02 12:24:52;;;;;;;;;;;;;;;;;;5053164;28;20033;-69
2022/12/02 12:27:37;;;;;;;98.85;31.83;;;;;;;;;;5036153;28;20011;-69
2022/12/02 12:30:06;;;;;;;96.90;30.83;;;;;;;;;;5053768;28;20473;-69
2022/12/02 12:32:32;;;;;;;100.57;29.38;;;;;;;;;;5053076;28;20072;-70
2022/12/02 12:34:58;;;;;;;101.30;33.20;;;;;;;;;;5035751;28;20049;-69
2022/12/02 12:37:24;;;;;;;104.05;31.48;;;;;;;;;;5053747;28;20063;-69
2022/12/02 12:39:50;;;;;;;98.20;31.73;;;;;;;;;;5052233;28;20041;-69
2022/12/02 12:42:17;;;;;;;90.82;30.55;;;;;;;;;;5035879;28;20033;-69
2022/12/02 12:44:43;;;;;;;91.53;29.80;;;;;;;;;;5053628;28;20075;-70
2022/12/02 12:47:09;;;;;;;92.47;30.38;;;;;;;;;;5052211;28;20047;-69
2022/12/02 12:49:35;;;;;;;87.57;30.35;;;;;;;;;;5052549;28;20120;-69
2022/12/02 12:52:01;;;;;;;94.28;30.30;;;;;;;;;;5052460;28;20033;-70
2022/12/02 12:54:27;;;;;;;90.05;30.77;;;;;;;;;;5035492;28;20041;-69
2022/12/02 12:56:53;;;;;;;89.50;27.77;;;;;;;;;;5052032;28;20056;-70
2022/12/02 12:59:19;;;;;;;85.43;29.10;;;;;;;;;;5053171;28;20052;-70
2022/12/02 13:01:45;;;;;;;81.82;27.40;;;;;;;;;;5051984;28;20045;-69
2022/12/02 13:04:11;;;;;;;83.22;28.10;;;;;;;;;;5053170;28;20040;-66
2022/12/02 13:06:38;;;;;;;76.45;25.83;;;;;;;;;;5053149;28;20041;-66
2022/12/02 13:09:05;;;;;;;86.25;26.40;;;;;;;;;;5051739;28;20080;-66
2022/12/02 13:11:31;;;;;;;67.40;23.75;;;;;;;;;;5035245;28;20045;-66
2022/12/02 13:13:57;;;;;;;68.03;23.13;;;;;;;;;;5051884;28;20094;-66
2022/12/02 13:16:23;;;;;;;62.70;21.42;;;;;;;;;;5051812;28;20041;-66
2022/12/02 13:18:49;;;;;;;65.70;22.33;;;;;;;;;;5035361;28;20056;-66
2022/12/02 13:21:15;;;;;;;71.97;23.45;;;;;;;;;;5051782;28;20091;-66
2022/12/02 13:23:41;;;;;;;67.00;23.98;;;;;;;;;;5051959;28;20068;-66
2022/12/02 13:26:07;;;;;;;61.17;21.00;;;;;;;;;;5053069;28;20091;-66
2022/12/02 13:28:33;;;;;;;69.47;23.23;;;;;;;;;;5051851;28;20138;-66
2022/12/02 13:30:59;;;;;;;64.00;22.77;;;;;;;;;;5051881;28;20052;-66
2022/12/02 13:33:25;;;;;;;67.97;22.98;;;;;;;;;;5051586;28;20176;-66
2022/12/02 13:35:51;;;;;;;64.53;21.92;;;;;;;;;;5051588;28;20099;-66
2022/12/02 13:38:17;;;;;;;60.63;21.75;;;;;;;;;;5051534;28;20032;-65
2022/12/02 13:40:43;;;;;;;64.05;21.40;;;;;;;;;;5051864;28;20045;-66
2022/12/02 13:43:09;;;;;;;66.22;21.75;;;;;;;;;;5052668;28;20091;-66
2022/12/02 13:45:35;;;;;;;71.93;23.00;;;;;;;;;;5052667;28;20060;-66
2022/12/02 13:48:02;;;;;;;64.72;23.35;;;;;;;;;;5056742;28;20055;-66
2022/12/02 13:50:28;;;;;;;67.43;22.98;;;;;;;;;;5055696;28;20045;-66
2022/12/02 13:52:54;;;;;;;65.50;21.90;;;;;;;;;;5055762;28;20055;-66
2022/12/02 13:55:20;;;;;;;73.43;23.65;;;;;;;;;;5055696;28;20033;-66
2022/12/02 13:57:46;;;;;;;65.60;23.02;;;;;;;;;;5055670;28;20504;-66
2022/12/02 14:00:12;;;;;;;74.68;24.65;;;;;;;;;;5055508;28;20446;-65
2022/12/02 14:02:38;;;;;;;64.35;21.40;;;;;;;;;;5038841;28;20048;-65
2022/12/02 14:05:05;;;;;;;67.97;23.35;;;;;;;;;;5055332;28;20090;-66
2022/12/02 14:07:31;;;;;;;67.90;22.60;;;;;;;;;;5038623;28;20033;-66
2022/12/02 14:09:57;;;;;;;72.07;24.00;;;;;;;;;;5055039;28;20484;-66
2022/12/02 14:12:23;;;;;;;65.00;22.00;;;;;;;;;;5055019;28;20041;-65
2022/12/02 14:14:49;;;;;;;62.55;20.73;;;;;;;;;;5055344;28;20384;-66
2022/12/02 14:17:15;;;;;;;66.68;22.45;;;;;;;;;;5038406;28;20033;-66
2022/12/02 14:19:41;;;;;;;70.47;22.20;;;;;;;;;;5054938;28;20040;-66
2022/12/02 14:22:07;;;;;;;71.15;24.73;;;;;;;;;;5054984;28;20037;-65